Time;durP1;ratioP1;P1;durP2;ratioP2;P2;SDS_P1;SDS_P2;PMS_P1;PMS_P2;Temp;Humidity;BMP_temperature;BMP_pressure;BME280_temperature;BME280_humidity;BME280_pressure;Samples;Min_cycle;Max_cycle;Signal;HPM_P1;HPM_P2
2021/12/21 00:01:07;;;;;;;52.80;24.00;;;;;;;-141.50;100.00;63355.56;4955088;28;20476;-78
2021/12/21 00:03:34;;;;;;;55.20;25.30;;;;;;;-141.50;100.00;63355.56;4956521;28;20487;-78
2021/12/21 00:06:01;;;;;;;63.90;25.20;;;;;;;-141.50;100.00;63355.56;4955889;28;20155;-79
2021/12/21 00:08:28;;;;;;;63.17;26.02;;;;;;;-141.50;100.00;63355.56;4957517;29;20067;-79
2021/12/21 00:11:12;;;;;;;58.08;24.80;;;;;;;-141.50;100.00;63355.56;4954410;29;20090;-79
2021/12/21 00:13:56;;;;;;;60.30;24.70;;;;;;;-141.50;100.00;63355.56;4957552;29;20051;-78
2021/12/21 00:17:14;;;;;;;64.85;24.73;;;;;;;-141.50;100.00;63355.56;4956113;29;20054;-80
2021/12/21 00:19:43;;;;;;;58.58;23.23;;;;;;;-141.50;100.00;63355.56;4957680;29;20079;-79
2021/12/21 00:23:29;;;;;;;57.55;23.35;;;;;;;-141.50;100.00;63355.56;4959734;28;20079;-80
2021/12/21 00:25:05;;;;;;;48.20;22.63;;;;;;;-141.50;100.00;63355.56;4949156;29;20059;-80
2021/12/21 00:27:32;;;;;;;60.53;23.08;;;;;;;-141.50;100.00;63355.56;4958392;28;20074;-79
2021/12/21 00:29:58;;;;;;;61.85;23.17;;;;;;;-141.50;100.00;63355.56;4956904;28;20051;-79
2021/12/21 00:32:25;;;;;;;55.92;22.58;;;;;;;-141.50;100.00;63355.56;4955052;28;20139;-79
2021/12/21 00:34:51;;;;;;;53.13;22.73;;;;;;;-141.50;100.00;63355.56;4956193;28;20051;-77
2021/12/21 00:37:18;;;;;;;58.55;22.30;;;;;;;-141.50;100.00;63355.56;4956288;29;20451;-78
2021/12/21 00:39:45;;;;;;;59.35;22.23;;;;;;;-141.50;100.00;63355.56;4964823;28;20106;-77
2021/12/21 00:42:11;;;;;;;50.65;23.50;;;;;;;-141.50;100.00;63355.56;4966237;28;20051;-80
2021/12/21 00:44:38;;;;;;;49.53;21.75;;;;;;;-141.50;100.00;63355.56;4958772;29;20491;-79
2021/12/21 00:47:04;;;;;;;53.33;22.33;;;;;;;-141.50;100.00;63355.56;4957292;28;20051;-80
2021/12/21 00:49:31;;;;;;;53.17;23.13;;;;;;;-141.50;100.00;63355.56;4955223;28;20075;-77
2021/12/21 00:51:58;;;;;;;62.30;23.50;;;;;;;-141.50;100.00;63355.56;4954683;28;20106;-78
2021/12/21 00:54:26;;;;;;;50.20;21.98;;;;;;;-141.50;100.00;63355.56;4955293;29;20517;-78
2021/12/21 00:56:52;;;;;;;48.90;21.40;;;;;;;-141.50;100.00;63355.56;4956059;29;20080;-78
2021/12/21 00:59:19;;;;;;;50.70;21.83;;;;;;;-141.50;100.00;63355.56;4961690;29;20051;-78
2021/12/21 01:01:46;;;;;;;48.58;21.67;;;;;;;-141.50;100.00;63355.56;4963915;29;20531;-79
2021/12/21 01:04:23;;;;;;;56.13;21.00;;;;;;;-141.50;100.00;63355.56;4958676;28;20051;-79
2021/12/21 01:07:40;;;;;;;50.28;22.00;;;;;;;-141.50;100.00;63355.56;4954921;29;20492;-79
2021/12/21 01:12:28;;;;;;;47.42;20.40;;;;;;;-141.50;100.00;63355.56;4955871;28;20047;-78
2021/12/21 01:17:31;;;;;;;46.75;20.58;;;;;;;-141.50;100.00;63355.56;4953674;28;20097;-77
2021/12/21 01:20:09;;;;;;;44.63;19.95;;;;;;;-141.50;100.00;63355.56;4961294;28;20046;-78
2021/12/21 01:28:03;;;;;;;38.50;17.77;;;;;;;-141.50;100.00;63355.56;4961244;28;20444;-80
2021/12/21 01:33:58;;;;;;;40.10;17.10;;;;;;;-141.50;100.00;63355.56;4954263;29;20059;-79
2021/12/21 01:36:29;;;;;;;38.47;16.40;;;;;;;-141.50;100.00;63355.56;4955465;29;20114;-78
2021/12/21 01:41:43;;;;;;;36.63;16.15;;;;;;;-141.50;100.00;63355.56;4954453;28;20085;-77
2021/12/21 01:49:35;;;;;;;45.63;17.23;;;;;;;-141.50;100.00;63355.56;4956067;28;20083;-80
2021/12/21 01:49:49;;;;;;;35.08;13.63;;;;;;;-141.50;100.00;63355.56;4953014;28;20554;-79
2021/12/21 01:52:21;;;;;;;43.42;18.30;;;;;;;-141.50;100.00;63355.56;4953845;29;20059;-79
2021/12/21 01:54:49;;;;;;;50.03;19.42;;;;;;;-141.50;100.00;63355.56;4953623;29;20047;-79
2021/12/21 01:57:16;;;;;;;41.75;19.30;;;;;;;-141.50;100.00;63355.56;4955350;29;20079;-79
2021/12/21 01:59:45;;;;;;;48.33;19.63;;;;;;;-141.50;100.00;63355.56;4957512;28;20051;-80
2021/12/21 02:02:14;;;;;;;47.47;18.58;;;;;;;-141.50;100.00;63355.56;4956066;28;20460;-78
2021/12/21 02:04:41;;;;;;;45.28;20.17;;;;;;;-141.50;100.00;63355.56;4952800;29;20055;-79
2021/12/21 02:07:09;;;;;;;45.60;19.73;;;;;;;-141.50;100.00;63355.56;4954262;28;20055;-78
2021/12/21 02:09:37;;;;;;;46.47;19.60;;;;;;;-141.50;100.00;63355.56;4951505;29;20052;-77
2021/12/21 02:12:14;;;;;;;46.83;20.77;;;;;;;-141.50;100.00;63355.56;4955178;28;20122;-79
2021/12/21 02:14:56;;;;;;;46.45;21.08;;;;;;;-141.50;100.00;63355.56;4957725;28;20055;-79
2021/12/21 02:22:43;;;;;;;45.03;22.30;;;;;;;-141.50;100.00;63355.56;4954327;28;20083;-80
2021/12/21 02:30:48;;;;;;;47.25;22.38;;;;;;;-141.50;100.00;63355.56;4961041;28;20051;-78
2021/12/21 02:33:15;;;;;;;45.75;21.50;;;;;;;-141.50;100.00;63355.56;4961696;28;20101;-78
2021/12/21 02:35:43;;;;;;;46.58;21.83;;;;;;;-141.50;100.00;63355.56;4958321;28;20059;-81
2021/12/21 02:38:10;;;;;;;52.15;21.90;;;;;;;-141.50;100.00;63355.56;4958439;28;20051;-78
2021/12/21 02:40:38;;;;;;;49.72;22.70;;;;;;;-141.50;100.00;63355.56;4959491;28;20464;-79
2021/12/21 02:43:05;;;;;;;46.20;22.95;;;;;;;-141.50;100.00;63355.56;4961213;28;20059;-78
2021/12/21 02:45:32;;;;;;;54.10;23.95;;;;;;;-141.50;100.00;63355.56;4959023;28;20093;-77
2021/12/21 02:47:59;;;;;;;53.85;23.50;;;;;;;-141.50;100.00;63355.56;4958183;28;20047;-77
2021/12/21 02:50:26;;;;;;;55.30;22.30;;;;;;;-141.50;100.00;63355.56;4959292;28;20287;-78
2021/12/21 02:52:53;;;;;;;54.15;23.65;;;;;;;-141.50;100.00;63355.56;4963448;28;20051;-78
2021/12/21 02:55:20;;;;;;;52.58;22.63;;;;;;;-141.50;100.00;63355.56;4964314;28;20051;-78
2021/12/21 02:57:47;;;;;;;55.45;23.25;;;;;;;-141.50;100.00;63355.56;4964808;28;20047;-78
2021/12/21 03:00:14;;;;;;;51.45;22.58;;;;;;;-141.50;100.00;63355.56;4966752;29;20571;-79
2021/12/21 03:02:40;;;;;;;51.00;22.83;;;;;;;-141.50;100.00;63355.56;4965401;28;20291;-79
2021/12/21 03:05:07;;;;;;;49.35;22.00;;;;;;;-141.50;100.00;63355.56;4962948;28;20057;-79
2021/12/21 03:10:03;;;;;;;49.20;20.95;;;;;;;-141.50;100.00;63355.56;4961990;28;20109;-78
2021/12/21 03:15:26;;;;;;;41.70;20.73;;;;;;;-141.50;100.00;63355.56;4948560;28;20416;-78
2021/12/21 03:17:54;;;;;;;51.42;22.27;;;;;;;-141.50;100.00;63355.56;4957402;28;20078;-79
2021/12/21 03:20:21;;;;;;;48.08;22.98;;;;;;;-141.50;100.00;63355.56;4958278;28;20054;-79
2021/12/21 03:22:49;;;;;;;54.92;23.40;;;;;;;-141.50;100.00;63355.56;4961628;28;20047;-80
2021/12/21 03:25:16;;;;;;;54.63;23.45;;;;;;;-141.50;100.00;63355.56;4957221;29;20051;-79
2021/12/21 03:27:43;;;;;;;52.78;22.20;;;;;;;-141.50;100.00;63355.56;4959441;28;20097;-79
2021/12/21 03:30:14;;;;;;;42.90;21.13;;;;;;;-141.50;100.00;63355.56;4958345;28;20102;-79
2021/12/21 03:32:42;;;;;;;44.13;21.20;;;;;;;-141.50;100.00;63355.56;4958454;28;20055;-79
2021/12/21 03:35:08;;;;;;;43.67;19.95;;;;;;;-141.50;100.00;63355.56;4959464;28;20051;-79
2021/12/21 03:37:36;;;;;;;48.75;20.27;;;;;;;-141.50;100.00;63355.56;4959980;28;20055;-78
2021/12/21 03:40:04;;;;;;;51.58;21.15;;;;;;;-141.50;100.00;63355.56;4958309;28;20085;-79
2021/12/21 03:42:31;;;;;;;48.60;20.52;;;;;;;-141.50;100.00;63355.56;4961480;28;20471;-79
2021/12/21 03:44:58;;;;;;;47.40;19.30;;;;;;;-141.50;100.00;63355.56;4959932;28;20047;-79
2021/12/21 03:47:25;;;;;;;51.22;19.83;;;;;;;-141.50;100.00;63355.56;4959243;28;20055;-79
2021/12/21 03:49:55;;;;;;;38.28;19.15;;;;;;;-141.50;100.00;63355.56;4958476;29;20058;-78
2021/12/21 03:52:25;;;;;;;47.13;20.33;;;;;;;-141.50;100.00;63355.56;4960657;29;20051;-78
2021/12/21 03:55:00;;;;;;;50.25;19.90;;;;;;;-141.50;100.00;63355.56;4961586;28;20102;-78
2021/12/21 03:57:27;;;;;;;45.97;19.70;;;;;;;-141.50;100.00;63355.56;4962244;28;20055;-78
2021/12/21 03:59:54;;;;;;;41.92;19.35;;;;;;;-141.50;100.00;63355.56;4962145;28;20087;-79
2021/12/21 04:02:24;;;;;;;43.13;19.70;;;;;;;-141.50;100.00;63355.56;4961619;28;20067;-78
2021/12/21 04:04:56;;;;;;;52.42;20.50;;;;;;;-141.50;100.00;63355.56;4962506;28;20055;-79
2021/12/21 04:07:23;;;;;;;47.05;20.25;;;;;;;-141.50;100.00;63355.56;4961612;29;20130;-79
2021/12/21 04:09:49;;;;;;;42.95;19.40;;;;;;;-141.50;100.00;63355.56;4957434;28;20567;-79
2021/12/21 04:12:16;;;;;;;40.40;19.17;;;;;;;-141.50;100.00;63355.56;4957033;28;20051;-78
2021/12/21 04:14:43;;;;;;;42.83;19.52;;;;;;;-141.50;100.00;63355.56;4955819;28;20055;-77
2021/12/21 04:17:17;;;;;;;41.85;18.27;;;;;;;-141.50;100.00;63355.56;4955471;28;20078;-78
2021/12/21 04:19:44;;;;;;;44.60;19.25;;;;;;;-141.50;100.00;63355.56;4954608;28;20055;-78
2021/12/21 04:22:11;;;;;;;46.45;19.10;;;;;;;-141.50;100.00;63355.56;4953483;28;20138;-78
2021/12/21 04:24:38;;;;;;;45.28;18.70;;;;;;;-141.50;100.00;63355.56;4954150;28;20130;-78
2021/12/21 04:27:04;;;;;;;41.78;17.70;;;;;;;-141.50;100.00;63355.56;4954610;29;20083;-79
2021/12/21 04:29:31;;;;;;;42.20;17.67;;;;;;;-141.50;100.00;63355.56;4954466;28;20098;-79
2021/12/21 04:31:58;;;;;;;42.70;17.02;;;;;;;-141.50;100.00;63355.56;4954544;28;20083;-78
2021/12/21 04:34:25;;;;;;;41.10;18.13;;;;;;;-141.50;100.00;63355.56;4954519;28;20078;-78
2021/12/21 04:36:51;;;;;;;38.85;17.35;;;;;;;-141.50;100.00;63355.56;4953954;28;20464;-79
2021/12/21 04:39:32;;;;;;;41.45;17.90;;;;;;;-141.50;100.00;63355.56;4954510;28;20058;-77
2021/12/21 04:41:58;;;;;;;34.92;16.70;;;;;;;-141.50;100.00;63355.56;4956527;28;20070;-79
2021/12/21 04:44:30;;;;;;;40.67;16.27;;;;;;;-141.50;100.00;63355.56;4957704;28;20051;-80
2021/12/21 04:46:56;;;;;;;42.70;17.00;;;;;;;-141.50;100.00;63355.56;4954872;29;20114;-79
2021/12/21 04:49:23;;;;;;;45.08;16.73;;;;;;;-141.50;100.00;63355.56;4954594;28;20059;-79
2021/12/21 04:51:50;;;;;;;43.60;16.95;;;;;;;-141.50;100.00;63355.56;4955692;28;20146;-78
2021/12/21 04:54:16;;;;;;;36.13;16.25;;;;;;;-141.50;100.00;63355.56;4956241;28;20055;-79
2021/12/21 04:56:43;;;;;;;40.72;16.60;;;;;;;-141.50;100.00;63355.56;4955251;28;20110;-80
2021/12/21 04:59:10;;;;;;;34.38;16.95;;;;;;;-141.50;100.00;63355.56;4955221;28;20102;-79
2021/12/21 05:01:41;;;;;;;33.92;17.00;;;;;;;-141.50;100.00;63355.56;4948733;28;20477;-78
2021/12/21 05:04:07;;;;;;;38.85;17.88;;;;;;;-141.50;100.00;63355.56;4955508;29;20055;-78
2021/12/21 05:06:34;;;;;;;43.17;17.45;;;;;;;-141.50;100.00;63355.56;4953835;28;20051;-78
2021/12/21 05:09:09;;;;;;;42.38;16.90;;;;;;;-141.50;100.00;63355.56;4953388;29;20143;-78
2021/12/21 05:11:36;;;;;;;48.45;18.65;;;;;;;-141.50;100.00;63355.56;4953449;28;20118;-78
2021/12/21 05:14:06;;;;;;;39.38;18.52;;;;;;;-141.50;100.00;63355.56;4956060;28;20452;-79
2021/12/21 05:16:33;;;;;;;40.25;17.02;;;;;;;-141.50;100.00;63355.56;4955311;28;20050;-78
2021/12/21 05:18:59;;;;;;;44.83;17.70;;;;;;;-141.50;100.00;63355.56;4959361;28;20075;-78
2021/12/21 05:21:26;;;;;;;37.67;18.27;;;;;;;-141.50;100.00;63355.56;4976360;28;20042;-80
2021/12/21 05:23:53;;;;;;;39.17;17.70;;;;;;;-141.50;100.00;63355.56;4976160;28;20043;-78
2021/12/21 05:26:19;;;;;;;43.25;18.27;;;;;;;-141.50;100.00;63355.56;4966854;29;20047;-79
2021/12/21 05:28:46;;;;;;;42.03;18.77;;;;;;;-141.50;100.00;63355.56;4952063;29;20078;-78
2021/12/21 05:31:12;;;;;;;45.60;19.08;;;;;;;-141.50;100.00;63355.56;4951311;29;20082;-82
2021/12/21 05:33:39;;;;;;;42.83;20.48;;;;;;;-141.50;100.00;63355.56;4942195;29;20059;-82
2021/12/21 05:36:06;;;;;;;55.60;20.88;;;;;;;-141.50;100.00;63355.56;4934130;29;20082;-83
2021/12/21 05:38:34;;;;;;;44.53;21.27;;;;;;;-141.50;100.00;63355.56;4949153;29;20052;-78
2021/12/21 05:41:05;;;;;;;43.90;20.00;;;;;;;-141.50;100.00;63355.56;4951810;29;20058;-80
2021/12/21 05:43:32;;;;;;;46.85;21.17;;;;;;;-141.50;100.00;63355.56;4957323;28;20051;-79
2021/12/21 05:45:59;;;;;;;52.10;21.60;;;;;;;-141.50;100.00;63355.56;4957540;29;20081;-79
2021/12/21 05:48:26;;;;;;;46.90;21.42;;;;;;;-141.50;100.00;63355.56;4960379;28;20047;-79
2021/12/21 05:50:52;;;;;;;50.90;21.42;;;;;;;-141.50;100.00;63355.56;4957922;28;20063;-78
2021/12/21 05:53:19;;;;;;;50.25;22.15;;;;;;;-141.50;100.00;63355.56;4958028;28;20665;-79
2021/12/21 05:55:45;;;;;;;46.67;21.40;;;;;;;-141.50;100.00;63355.56;4957367;28;20106;-80
2021/12/21 05:58:12;;;;;;;51.00;21.05;;;;;;;-141.50;100.00;63355.56;4957392;28;20047;-80
2021/12/21 06:00:38;;;;;;;47.40;21.80;;;;;;;-141.50;100.00;63355.56;4957746;29;20055;-80
2021/12/21 06:03:05;;;;;;;45.88;21.08;;;;;;;-141.50;100.00;63355.56;4941364;28;20512;-79
2021/12/21 06:05:32;;;;;;;48.10;21.48;;;;;;;-141.50;100.00;63355.56;4950035;29;20058;-80
2021/12/21 06:07:58;;;;;;;49.75;22.15;;;;;;;-141.50;100.00;63355.56;4949059;29;20464;-80
2021/12/21 06:10:36;;;;;;;53.63;21.50;;;;;;;-141.50;100.00;63355.56;4954856;29;20114;-80
2021/12/21 06:26:48;;;;;;;38.67;17.40;;;;;;;-141.50;100.00;63355.56;4955815;29;20055;-79
2021/12/21 06:29:15;;;;;;;55.35;21.63;;;;;;;-141.50;100.00;63355.56;4954776;28;20059;-80
2021/12/21 06:31:41;;;;;;;50.47;19.80;;;;;;;-141.50;100.00;63355.56;4954377;28;20117;-79
2021/12/21 06:34:08;;;;;;;47.70;20.02;;;;;;;-141.50;100.00;63355.56;4955140;28;20074;-78
2021/12/21 06:36:35;;;;;;;49.38;19.70;;;;;;;-141.50;100.00;63355.56;4957448;29;20055;-79
2021/12/21 06:39:05;;;;;;;48.72;20.23;;;;;;;-141.50;100.00;63355.56;4955122;29;20055;-79
2021/12/21 06:41:36;;;;;;;50.25;19.77;;;;;;;-141.50;100.00;63355.56;4962270;28;20491;-79
2021/12/21 06:44:04;;;;;;;43.33;19.08;;;;;;;-141.50;100.00;63355.56;4956712;28;20074;-79
2021/12/21 06:47:07;;;;;;;49.65;19.23;;;;;;;-141.50;100.00;63355.56;4952361;28;20543;-79
2021/12/21 06:52:19;;;;;;;54.67;19.70;;;;;;;-141.50;100.00;63355.56;4950850;28;20055;-79
2021/12/21 06:54:46;;;;;;;44.13;19.10;;;;;;;-141.50;100.00;63355.56;4951109;28;20080;-77
2021/12/21 06:57:12;;;;;;;46.78;19.10;;;;;;;-141.50;100.00;63355.56;4965637;28;20051;-78
2021/12/21 06:59:39;;;;;;;50.22;18.83;;;;;;;-141.50;100.00;63355.56;4961217;28;20043;-78
2021/12/21 07:02:06;;;;;;;51.20;20.58;;;;;;;-141.50;100.00;63355.56;4966629;28;20055;-78
2021/12/21 07:04:34;;;;;;;53.67;20.65;;;;;;;-141.50;100.00;63355.56;4967931;28;20055;-79
2021/12/21 07:07:00;;;;;;;51.20;21.70;;;;;;;-141.50;100.00;63355.56;4956256;28;20090;-78
2021/12/21 07:09:35;;;;;;;54.13;20.88;;;;;;;-141.50;100.00;63355.56;4951829;28;20079;-79
2021/12/21 07:12:24;;;;;;;55.83;20.90;;;;;;;-141.50;100.00;63355.56;4954348;28;20051;-77
2021/12/21 07:20:21;;;;;;;48.55;19.90;;;;;;;-141.50;100.00;63355.56;4954612;29;20147;-78
2021/12/21 07:22:48;;;;;;;47.75;19.45;;;;;;;-141.50;100.00;63355.56;4951883;29;20146;-78
2021/12/21 07:25:15;;;;;;;57.47;19.38;;;;;;;-141.50;100.00;63355.56;4955998;28;20146;-78
2021/12/21 07:27:42;;;;;;;47.97;18.17;;;;;;;-141.50;100.00;63355.56;4955315;28;20051;-79
2021/12/21 07:30:09;;;;;;;44.97;19.38;;;;;;;-141.50;100.00;63355.56;4953475;29;20051;-79
2021/12/21 07:32:36;;;;;;;49.58;17.67;;;;;;;-141.50;100.00;63355.56;4955153;28;20090;-80
2021/12/21 07:35:04;;;;;;;44.03;17.95;;;;;;;-141.50;100.00;63355.56;4960351;28;20054;-80
2021/12/21 07:37:31;;;;;;;44.83;18.17;;;;;;;-141.50;100.00;63355.56;4955044;29;20114;-80
2021/12/21 07:39:57;;;;;;;41.67;17.75;;;;;;;-141.50;100.00;63355.56;4955249;29;20071;-81
2021/12/21 07:42:24;;;;;;;39.03;16.15;;;;;;;-141.50;100.00;63355.56;4956914;28;20047;-80
2021/12/21 07:44:50;;;;;;;35.58;14.82;;;;;;;-141.50;100.00;63355.56;4956357;28;20075;-80
2021/12/21 07:47:17;;;;;;;37.83;15.07;;;;;;;-141.50;100.00;63355.56;4975060;28;20066;-81
2021/12/21 07:49:44;;;;;;;35.17;15.02;;;;;;;-141.50;100.00;63355.56;4975731;28;20046;-80
2021/12/21 07:52:12;;;;;;;33.58;15.05;;;;;;;-141.50;100.00;63355.56;4975946;28;20531;-80
2021/12/21 07:54:38;;;;;;;40.97;15.30;;;;;;;-141.50;100.00;63355.56;4973957;28;20141;-79
2021/12/21 07:57:08;;;;;;;35.08;14.25;;;;;;;-141.50;100.00;63355.56;4976043;28;20059;-79
2021/12/21 07:59:37;;;;;;;33.75;13.85;;;;;;;-141.50;100.00;63355.56;4980356;28;20046;-77
2021/12/21 08:02:10;;;;;;;27.85;12.48;;;;;;;-141.50;100.00;63355.56;4990014;28;20050;-78
2021/12/21 08:04:38;;;;;;;29.95;11.93;;;;;;;-141.50;100.00;63355.56;4979973;28;20050;-79
2021/12/21 08:07:10;;;;;;;29.27;12.27;;;;;;;-141.50;100.00;63355.56;4974445;28;20050;-79
2021/12/21 08:09:41;;;;;;;26.80;11.82;;;;;;;-141.50;100.00;63355.56;4974251;28;20081;-78
2021/12/21 08:14:37;;;;;;;28.23;11.15;;;;;;;-141.50;100.00;63355.56;4977579;28;20645;-79
2021/12/21 08:17:04;;;;;;;32.45;11.20;;;;;;;-141.50;100.00;63355.56;4978012;28;20058;-79
2021/12/21 08:19:31;;;;;;;28.98;10.88;;;;;;;-141.50;100.00;63355.56;4974355;28;20317;-78
2021/12/21 08:22:00;;;;;;;35.92;11.45;;;;;;;-141.50;100.00;63355.56;4973203;28;20043;-77
2021/12/21 08:24:27;;;;;;;27.20;11.70;;;;;;;-141.50;100.00;63355.56;4969580;28;20057;-79
2021/12/21 08:26:54;;;;;;;30.67;12.07;;;;;;;-141.50;100.00;63355.56;4972700;28;20051;-80
2021/12/21 08:29:20;;;;;;;28.35;11.38;;;;;;;-141.50;100.00;63355.56;4974132;28;20082;-78
2021/12/21 08:31:47;;;;;;;33.25;13.00;;;;;;;-141.50;100.00;63355.56;4970531;28;20809;-80
2021/12/21 08:34:15;;;;;;;34.13;13.10;;;;;;;-141.50;100.00;63355.56;4971743;28;20114;-79
2021/12/21 08:36:42;;;;;;;31.48;13.07;;;;;;;-141.50;100.00;63355.56;4971652;28;20495;-79
2021/12/21 08:39:09;;;;;;;32.80;12.27;;;;;;;-141.50;100.00;63355.56;4974054;28;20511;-78
2021/12/21 08:41:41;;;;;;;33.20;11.88;;;;;;;-141.50;100.00;63355.56;4970862;28;20417;-77
2021/12/21 08:44:10;;;;;;;37.38;12.15;;;;;;;-141.50;100.00;63355.56;4973248;28;20058;-77
2021/12/21 08:46:39;;;;;;;22.20;9.95;;;;;;;-141.50;100.00;63355.56;4975842;28;20059;-80
2021/12/21 08:49:06;;;;;;;22.30;9.65;;;;;;;-141.50;100.00;63355.56;4972807;28;20464;-77
2021/12/21 08:51:32;;;;;;;23.92;9.10;;;;;;;-141.50;100.00;63355.56;4970850;28;20137;-79
2021/12/21 08:53:59;;;;;;;26.83;11.15;;;;;;;-141.50;100.00;63355.56;4972240;28;20054;-79
2021/12/21 08:56:26;;;;;;;29.45;11.43;;;;;;;-141.50;100.00;63355.56;4971397;28;20066;-78
2021/12/21 08:58:52;;;;;;;28.20;11.05;;;;;;;-141.50;100.00;63355.56;4974303;28;20078;-77
2021/12/21 09:01:19;;;;;;;27.13;10.80;;;;;;;-141.50;100.00;63355.56;4975369;28;20050;-79
2021/12/21 09:03:46;;;;;;;27.63;11.20;;;;;;;-141.50;100.00;63355.56;4974180;28;20051;-80
2021/12/21 09:06:13;;;;;;;28.15;9.85;;;;;;;-141.50;100.00;63355.56;4979557;28;20054;-79
2021/12/21 09:08:40;;;;;;;23.20;10.57;;;;;;;-141.50;100.00;63355.56;4979096;28;20061;-77
2021/12/21 09:11:07;;;;;;;24.50;10.80;;;;;;;-141.50;100.00;63355.56;4979492;28;20059;-80
2021/12/21 09:13:33;;;;;;;29.30;11.23;;;;;;;-141.50;100.00;63355.56;4979820;28;20081;-79
2021/12/21 09:16:03;;;;;;;29.83;9.93;;;;;;;-141.50;100.00;63355.56;4980260;28;20054;-79
2021/12/21 09:18:29;;;;;;;31.23;11.32;;;;;;;-141.50;100.00;63355.56;4979937;28;20055;-78
2021/12/21 09:20:56;;;;;;;25.67;9.93;;;;;;;-141.50;100.00;63355.56;4985917;28;20074;-79
2021/12/21 09:23:22;;;;;;;33.60;11.60;;;;;;;-141.50;100.00;63355.56;4989995;28;20054;-78
2021/12/21 09:25:49;;;;;;;28.27;11.05;;;;;;;-141.50;100.00;63355.56;4990531;28;20035;-77
2021/12/21 09:28:15;;;;;;;22.60;9.88;;;;;;;-141.50;100.00;63355.56;4992670;28;20055;-80
2021/12/21 09:30:42;;;;;;;24.13;10.68;;;;;;;-141.50;100.00;63355.56;4990711;28;20051;-81
2021/12/21 09:33:08;;;;;;;24.80;10.15;;;;;;;-141.50;100.00;63355.56;4980831;28;20051;-79
2021/12/21 09:35:35;;;;;;;19.70;9.50;;;;;;;-141.50;100.00;63355.56;4974653;28;20047;-79
2021/12/21 09:38:02;;;;;;;28.10;10.18;;;;;;;-141.50;100.00;63355.56;4972063;28;20317;-79
2021/12/21 09:40:29;;;;;;;27.10;9.93;;;;;;;-141.50;100.00;63355.56;4971744;28;20054;-79
2021/12/21 09:42:58;;;;;;;24.30;9.88;;;;;;;-141.50;100.00;63355.56;4970896;28;20059;-78
2021/12/21 09:45:26;;;;;;;25.90;10.07;;;;;;;-141.50;100.00;63355.56;4972841;28;20105;-77
2021/12/21 09:47:53;;;;;;;22.20;9.48;;;;;;;-141.50;100.00;63355.56;4972236;28;20125;-78
2021/12/21 09:50:21;;;;;;;22.08;10.23;;;;;;;-141.50;100.00;63355.56;4971449;28;20054;-77
2021/12/21 09:52:48;;;;;;;20.55;9.55;;;;;;;-141.50;100.00;63355.56;4970240;28;20105;-77
2021/12/21 09:55:16;;;;;;;27.80;9.75;;;;;;;-141.50;100.00;63355.56;4971508;28;20145;-77
2021/12/21 09:57:42;;;;;;;20.15;8.90;;;;;;;-141.50;100.00;63355.56;4972116;28;20050;-76
2021/12/21 10:00:13;;;;;;;26.63;9.25;;;;;;;-141.50;100.00;63355.56;4972055;28;20491;-77
2021/12/21 10:02:40;;;;;;;23.30;8.20;;;;;;;-141.50;100.00;63355.56;4971606;28;20059;-82
2021/12/21 10:05:10;;;;;;;21.00;8.77;;;;;;;-141.50;100.00;63355.56;4970780;28;20137;-80
2021/12/21 10:07:37;;;;;;;22.85;8.30;;;;;;;-141.50;100.00;63355.56;4971834;28;20153;-79
2021/12/21 10:10:06;;;;;;;22.70;8.85;;;;;;;-141.50;100.00;63355.56;4971701;28;20099;-79
2021/12/21 10:12:37;;;;;;;23.08;8.77;;;;;;;-141.50;100.00;63355.56;4973470;28;20090;-80
2021/12/21 10:15:22;;;;;;;20.25;8.82;;;;;;;-141.50;100.00;63355.56;4973760;28;20487;-80
2021/12/21 10:17:58;;;;;;;22.33;8.75;;;;;;;-141.50;100.00;63355.56;4972344;28;20086;-81
2021/12/21 10:20:37;;;;;;;21.08;8.82;;;;;;;-141.50;100.00;63355.56;4973236;28;20082;-80
2021/12/21 10:23:29;;;;;;;19.88;7.93;;;;;;;-141.50;100.00;63355.56;4972850;28;20109;-80
2021/12/21 10:25:57;;;;;;;23.42;9.00;;;;;;;-141.50;100.00;63355.56;4974163;28;20651;-81
2021/12/21 10:28:28;;;;;;;23.38;9.13;;;;;;;-141.50;100.00;63355.56;4975882;28;20047;-82
2021/12/21 10:30:56;;;;;;;23.50;8.18;;;;;;;-141.50;100.00;63355.56;4970236;28;20081;-80
2021/12/21 10:33:24;;;;;;;21.05;8.45;;;;;;;-141.50;100.00;63355.56;4952766;28;20074;-81
2021/12/21 10:35:54;;;;;;;22.60;7.85;;;;;;;-141.50;100.00;63355.56;4953381;28;20444;-81
2021/12/21 10:38:30;;;;;;;16.27;7.72;;;;;;;-141.50;100.00;63355.56;4952625;28;20085;-81
2021/12/21 10:41:22;;;;;;;20.45;8.25;;;;;;;-141.50;100.00;63355.56;4951940;28;20084;-81
2021/12/21 10:44:04;;;;;;;19.90;7.50;;;;;;;-141.50;100.00;63355.56;4950353;29;20059;-81
2021/12/21 10:46:43;;;;;;;18.88;8.13;;;;;;;-141.50;100.00;63355.56;4954144;28;20114;-80
2021/12/21 10:49:31;;;;;;;21.05;8.55;;;;;;;-141.50;100.00;63355.56;4952487;28;20047;-81
2021/12/21 10:52:05;;;;;;;21.40;8.02;;;;;;;-141.50;100.00;63355.56;4955715;28;20059;-79
2021/12/21 10:54:42;;;;;;;12.82;5.80;;;;;;;-141.50;100.00;63355.56;4958355;28;20059;-81
2021/12/21 10:57:16;;;;;;;20.17;9.27;;;;;;;-141.50;100.00;63355.56;4974590;28;20463;-81
2021/12/21 10:59:46;;;;;;;20.95;8.60;;;;;;;-141.50;100.00;63355.56;4975837;28;20061;-81
2021/12/21 11:02:16;;;;;;;22.58;9.13;;;;;;;-141.50;100.00;63355.56;4975320;28;20109;-79
2021/12/21 11:04:48;;;;;;;18.70;8.60;;;;;;;-141.50;100.00;63355.56;4973878;28;20051;-81
2021/12/21 11:07:34;;;;;;;26.30;9.65;;;;;;;-141.50;100.00;63355.56;4974219;28;20508;-81
2021/12/21 11:10:12;;;;;;;21.65;9.32;;;;;;;-141.50;100.00;63355.56;4973150;28;20657;-80
2021/12/21 11:13:10;;;;;;;19.35;8.65;;;;;;;-141.50;100.00;63355.56;4975654;28;20646;-82
2021/12/21 11:15:40;;;;;;;17.88;8.95;;;;;;;-141.50;100.00;63355.56;4953601;28;20736;-82
2021/12/21 11:18:16;;;;;;;19.40;8.45;;;;;;;-141.50;100.00;63355.56;4955001;28;20047;-82
2021/12/21 11:20:45;;;;;;;21.17;8.45;;;;;;;-141.50;100.00;63355.56;4955952;28;20098;-82
2021/12/21 11:23:13;;;;;;;20.70;8.88;;;;;;;-141.50;100.00;63355.56;4954146;29;20055;-83
2021/12/21 11:25:42;;;;;;;16.35;8.85;;;;;;;-141.50;100.00;63355.56;4955627;28;20087;-82
2021/12/21 11:28:13;;;;;;;21.92;8.35;;;;;;;-141.50;100.00;63355.56;4950765;28;20051;-79
2021/12/21 11:30:40;;;;;;;22.70;9.30;;;;;;;-141.50;100.00;63355.56;4951182;28;20047;-81
2021/12/21 11:33:09;;;;;;;21.23;9.13;;;;;;;-141.50;100.00;63355.56;4951953;28;20826;-82
2021/12/21 11:38:10;;;;;;;22.40;8.10;;;;;;;-141.50;100.00;63355.56;4968761;28;20085;-82
2021/12/21 11:40:39;;;;;;;16.10;7.90;;;;;;;-141.50;100.00;63355.56;4955064;28;20051;-82
2021/12/21 11:43:34;;;;;;;19.92;8.60;;;;;;;-141.50;100.00;63355.56;4952273;28;20055;-80
2021/12/21 11:46:14;;;;;;;21.60;7.68;;;;;;;-141.50;100.00;63355.56;4954906;28;20082;-82
2021/12/21 11:48:59;;;;;;;18.17;7.43;;;;;;;-141.50;100.00;63355.56;4950962;28;20238;-83
2021/12/21 11:51:27;;;;;;;14.73;6.47;;;;;;;-141.50;100.00;63355.56;4951698;28;20121;-79
2021/12/21 11:53:56;;;;;;;24.33;7.85;;;;;;;-141.50;100.00;63355.56;4950856;28;20087;-78
2021/12/21 11:56:25;;;;;;;20.35;7.82;;;;;;;-141.50;100.00;63355.56;4949503;28;20055;-82
2021/12/21 11:58:55;;;;;;;21.63;7.78;;;;;;;-141.50;100.00;63355.56;4954852;28;20138;-81
2021/12/21 12:01:27;;;;;;;18.45;7.85;;;;;;;-141.50;100.00;63355.56;4954814;28;20066;-82
2021/12/21 12:03:54;;;;;;;20.23;7.30;;;;;;;-141.50;100.00;63355.56;4953869;29;20106;-82
2021/12/21 12:06:22;;;;;;;19.10;8.02;;;;;;;-141.50;100.00;63355.56;4954150;28;20058;-80
2021/12/21 12:08:55;;;;;;;20.08;7.40;;;;;;;-141.50;100.00;63355.56;4959070;28;20058;-81
2021/12/21 12:11:23;;;;;;;14.02;6.68;;;;;;;-141.50;100.00;63355.56;4935244;29;20138;-81